createdAt,value
2023-04-17T00:07:09.864Z,48.93
2023-04-17T00:22:11.509Z,48.82
2023-04-17T00:37:13.138Z,49.06
2023-04-17T00:52:23.394Z,48.92
2023-04-17T01:07:25.504Z,48.54
2023-04-17T01:22:27.244Z,48.62
2023-04-17T01:37:29.058Z,48.28
2023-04-17T01:52:30.703Z,48.07
2023-04-17T02:07:32.354Z,47.71
2023-04-17T02:22:34.010Z,48.05
2023-04-17T02:37:35.685Z,47.52
2023-04-17T02:52:37.502Z,47.71
2023-04-17T03:07:39.363Z,47.51
2023-04-17T03:22:40.995Z,47.66
2023-04-17T03:37:42.617Z,47.76
2023-04-17T03:52:44.553Z,47.63
2023-04-17T04:07:46.282Z,47.31
2023-04-17T04:22:48.179Z,47.01
2023-04-17T04:37:49.943Z,47.75
2023-04-17T04:52:51.807Z,47.86
2023-04-17T05:07:53.519Z,47.09
2023-04-17T05:22:55.271Z,47.72
2023-04-17T05:37:56.892Z,49.10
2023-04-17T05:52:58.684Z,48.98
2023-04-17T06:08:00.505Z,48.74
2023-04-17T06:23:02.178Z,48.71
2023-04-17T06:38:03.858Z,47.86
2023-04-17T06:53:05.621Z,48.03
2023-04-17T07:08:07.256Z,47.99
2023-04-17T07:23:08.883Z,48.27
2023-04-17T07:38:10.612Z,47.91
2023-04-17T07:53:12.271Z,47.55
2023-04-17T08:08:13.992Z,47.81
2023-04-17T08:23:15.701Z,47.82
2023-04-17T08:38:17.353Z,47.88
2023-04-17T08:53:19.864Z,47.94
2023-04-17T09:08:22.903Z,47.76
2023-04-17T09:23:25.166Z,48.33
2023-04-17T09:38:39.161Z,47.93
2023-04-17T09:53:41.009Z,47.49
2023-04-17T10:08:43.193Z,48.42
2023-04-17T10:23:45.141Z,47.88
2023-04-17T10:38:46.934Z,48.21
2023-04-17T10:54:06.715Z,47.78
2023-04-17T11:09:10.242Z,48.12
2023-04-17T11:24:12.046Z,47.69
2023-04-17T11:39:15.581Z,47.84
2023-04-17T11:54:27.009Z,46.95
2023-04-17T12:09:28.773Z,47.78
2023-04-17T12:24:30.411Z,47.48
2023-04-17T12:39:32.134Z,47.62
2023-04-17T12:54:33.838Z,47.71
2023-04-17T13:09:35.528Z,47.78
2023-04-17T13:24:37.196Z,47.74
2023-04-17T13:39:38.907Z,47.80
2023-04-17T13:54:41.376Z,47.84
2023-04-17T14:09:43.149Z,47.63
2023-04-17T14:24:44.803Z,48.13
2023-04-17T14:39:46.476Z,47.84
2023-04-17T14:54:48.173Z,48.02
2023-04-17T15:09:49.887Z,48.00
2023-04-17T15:24:51.656Z,48.28
2023-04-17T15:39:53.310Z,47.97
2023-04-17T15:54:54.955Z,48.20
2023-04-17T16:09:56.674Z,48.36
2023-04-17T16:24:58.859Z,48.08
2023-04-17T16:40:00.544Z,48.17
2023-04-17T16:55:02.307Z,47.86
2023-04-17T17:10:07.795Z,48.16
2023-04-17T17:25:09.693Z,47.94
2023-04-17T17:40:11.555Z,47.96
2023-04-17T17:55:14.297Z,48.08
2023-04-17T18:10:16.285Z,47.85
2023-04-17T18:25:18.056Z,47.89
2023-04-17T18:40:19.869Z,48.26
2023-04-17T18:55:21.590Z,47.52
2023-04-17T19:10:23.472Z,47.93
2023-04-17T19:25:25.474Z,47.89
2023-04-17T19:40:27.503Z,47.83
2023-04-17T19:55:29.323Z,47.62
2023-04-17T20:10:30.992Z,48.02
2023-04-17T20:25:32.794Z,48.06
2023-04-17T20:40:34.579Z,48.04
2023-04-17T20:55:39.110Z,48.46
2023-04-17T21:10:40.807Z,47.85
2023-04-17T21:25:42.433Z,48.54
2023-04-17T21:40:50.925Z,48.03
2023-04-17T21:55:53.318Z,47.99
2023-04-17T22:10:54.992Z,47.66
2023-04-17T22:25:56.697Z,47.06
2023-04-17T22:40:58.356Z,47.35
2023-04-17T22:56:04.290Z,46.84
2023-04-17T23:11:06.078Z,46.39
2023-04-17T23:26:08.264Z,46.19
2023-04-17T23:41:10.000Z,45.94
2023-04-17T23:56:11.664Z,45.47
